DAL1194 KLAX-KSLC
Flight info
| Callsign | DAL1194 |
|---|---|
| Flight time | 1h 16m |
| Altitude | 35000 |
| Route | ORCKA5 LAS Q70 BLIPP Q842 WINEN MLF QWENN6 |
| Aircraft | A321/M-SDE3FGHIRWY/LB1 |
Departure
| Time | 2026-04-25 19:37 |
|---|---|
| Airport | Los Angeles International Airport (KLAX) |
Arrival
| Time | 2026-04-25 20:53 |
|---|---|
| Airport | Salt Lake City International Airport (KSLC) |
| Time | Latitude | Longitude | Altitude | Speed | Heading |
|---|---|---|---|---|---|
| 2026-04-25 18:48 | 33.94599 | -118.40651 | 93 ft | 0 kts | 262° |
| 2026-04-25 19:29 | 33.94601 | -118.40628 | 92 ft | 4 kts | 262° |
| 2026-04-25 19:30 | 33.94605 | -118.40596 | 93 ft | 4 kts | 262° |
| 2026-04-25 19:30 | 33.94607 | -118.40578 | 93 ft | 0 kts | 262° |
| 2026-04-25 19:32 | 33.94609 | -118.40587 | 93 ft | 4 kts | 282° |
| 2026-04-25 19:32 | 33.94637 | -118.40594 | 93 ft | 4 kts | 0° |
| 2026-04-25 19:32 | 33.94664 | -118.40593 | 93 ft | 3 kts | 0° |
| 2026-04-25 19:32 | 33.94672 | -118.40593 | 93 ft | 3 kts | 0° |
| 2026-04-25 19:33 | 33.94738 | -118.40596 | 94 ft | 6 kts | 358° |
| 2026-04-25 19:33 | 33.94776 | -118.40596 | 93 ft | 5 kts | 3° |
| 2026-04-25 19:33 | 33.94837 | -118.40593 | 94 ft | 14 kts | 15° |
| 2026-04-25 19:33 | 33.94873 | -118.40496 | 96 ft | 13 kts | 82° |
| 2026-04-25 19:34 | 33.94884 | -118.40390 | 94 ft | 13 kts | 83° |
| 2026-04-25 19:34 | 33.94895 | -118.40284 | 94 ft | 12 kts | 83° |
| 2026-04-25 19:34 | 33.94905 | -118.40186 | 96 ft | 12 kts | 84° |
| 2026-04-25 19:34 | 33.94917 | -118.40064 | 93 ft | 16 kts | 83° |
| 2026-04-25 19:35 | 33.94937 | -118.39944 | 93 ft | 8 kts | 59° |
| 2026-04-25 19:35 | 33.94941 | -118.39939 | 94 ft | 0 kts | 53° |
| 2026-04-25 19:35 | 33.94966 | -118.39918 | 94 ft | 10 kts | 21° |
| 2026-04-25 19:35 | 33.95037 | -118.39936 | 92 ft | 10 kts | 307° |
| 2026-04-25 19:36 | 33.95035 | -118.40028 | 95 ft | 18 kts | 264° |
| 2026-04-25 19:36 | 33.94989 | -118.40461 | 99 ft | 86 kts | 263° |
| 2026-04-25 19:36 | 33.94891 | -118.41410 | 98 ft | 140 kts | 263° |
| 2026-04-25 19:36 | 33.94778 | -118.42548 | 218 ft | 164 kts | 262° |
| 2026-04-25 19:37 | 33.94639 | -118.43880 | 909 ft | 161 kts | 259° |
| 2026-04-25 19:37 | 33.94494 | -118.45216 | 1572 ft | 161 kts | 260° |
| 2026-04-25 19:37 | 33.94345 | -118.46594 | 2019 ft | 173 kts | 259° |
| 2026-04-25 19:37 | 33.94181 | -118.48096 | 2286 ft | 189 kts | 261° |
| 2026-04-25 19:38 | 33.93994 | -118.49754 | 2529 ft | 210 kts | 260° |
| 2026-04-25 19:38 | 33.93861 | -118.50965 | 2777 ft | 222 kts | 260° |
| 2026-04-25 19:38 | 33.93651 | -118.52880 | 3097 ft | 243 kts | 260° |
| 2026-04-25 19:38 | 33.93420 | -118.54959 | 3693 ft | 255 kts | 261° |
| 2026-04-25 19:39 | 33.93187 | -118.57107 | 4492 ft | 261 kts | 261° |
| 2026-04-25 19:39 | 33.92941 | -118.59295 | 5296 ft | 266 kts | 261° |
| 2026-04-25 19:39 | 33.92677 | -118.61503 | 6210 ft | 266 kts | 258° |
| 2026-04-25 19:39 | 33.91984 | -118.63556 | 7115 ft | 268 kts | 236° |
| 2026-04-25 19:40 | 33.90634 | -118.65102 | 7980 ft | 272 kts | 211° |
| 2026-04-25 19:40 | 33.88837 | -118.65800 | 8784 ft | 278 kts | 186° |
| 2026-04-25 19:40 | 33.86902 | -118.65469 | 9608 ft | 287 kts | 161° |
| 2026-04-25 19:40 | 33.85239 | -118.64089 | 10356 ft | 298 kts | 134° |
| 2026-04-25 19:41 | 33.84263 | -118.61860 | 11034 ft | 312 kts | 105° |
| 2026-04-25 19:41 | 33.84298 | -118.59213 | 11668 ft | 326 kts | 75° |
| 2026-04-25 19:41 | 33.85311 | -118.56715 | 12064 ft | 344 kts | 58° |
| 2026-04-25 19:41 | 33.86207 | -118.55046 | 12174 ft | 360 kts | 56° |
| 2026-04-25 19:42 | 33.88209 | -118.51664 | 12351 ft | 390 kts | 53° |
| 2026-04-25 19:42 | 33.89900 | -118.48919 | 12620 ft | 407 kts | 53° |
| 2026-04-25 19:42 | 33.91584 | -118.46171 | 13149 ft | 414 kts | 54° |
| 2026-04-25 19:42 | 33.93286 | -118.43334 | 13718 ft | 422 kts | 54° |
| 2026-04-25 19:43 | 33.95006 | -118.40381 | 14226 ft | 428 kts | 56° |
| 2026-04-25 19:43 | 33.96729 | -118.37342 | 14813 ft | 432 kts | 56° |
| 2026-04-25 19:43 | 33.98389 | -118.34376 | 15390 ft | 435 kts | 56° |
| 2026-04-25 19:43 | 34.00093 | -118.31324 | 15969 ft | 438 kts | 56° |
| 2026-04-25 19:44 | 34.01801 | -118.28273 | 16567 ft | 441 kts | 56° |
| 2026-04-25 19:44 | 34.03537 | -118.25192 | 17206 ft | 444 kts | 56° |
| 2026-04-25 19:44 | 34.05280 | -118.22115 | 17785 ft | 447 kts | 55° |
| 2026-04-25 19:44 | 34.07045 | -118.19005 | 18365 ft | 450 kts | 55° |
| 2026-04-25 19:45 | 34.08816 | -118.15882 | 18917 ft | 453 kts | 55° |
| 2026-04-25 19:45 | 34.10601 | -118.12731 | 19392 ft | 457 kts | 55° |
| 2026-04-25 19:45 | 34.12401 | -118.09549 | 19816 ft | 461 kts | 56° |
| 2026-04-25 19:45 | 34.14213 | -118.06338 | 20228 ft | 464 kts | 56° |
| 2026-04-25 19:46 | 34.16062 | -118.03061 | 20665 ft | 468 kts | 56° |
| 2026-04-25 19:46 | 34.17899 | -117.99797 | 21143 ft | 471 kts | 56° |
| 2026-04-25 19:46 | 34.19744 | -117.96514 | 21594 ft | 475 kts | 56° |
| 2026-04-25 19:46 | 34.21603 | -117.93204 | 22015 ft | 478 kts | 56° |
| 2026-04-25 19:47 | 34.23078 | -117.90576 | 22405 ft | 481 kts | 56° |
| 2026-04-25 19:47 | 34.24959 | -117.87223 | 22813 ft | 484 kts | 56° |
| 2026-04-25 19:47 | 34.26856 | -117.83835 | 23228 ft | 488 kts | 56° |
| 2026-04-25 19:47 | 34.28764 | -117.80427 | 23627 ft | 491 kts | 56° |
| 2026-04-25 19:48 | 34.30680 | -117.77003 | 23963 ft | 494 kts | 56° |
| 2026-04-25 19:48 | 34.32610 | -117.73551 | 24319 ft | 497 kts | 56° |
| 2026-04-25 19:48 | 34.34545 | -117.70088 | 24671 ft | 499 kts | 56° |
| 2026-04-25 19:48 | 34.36517 | -117.66603 | 25005 ft | 502 kts | 55° |
| 2026-04-25 19:49 | 34.38548 | -117.63136 | 25305 ft | 505 kts | 54° |
| 2026-04-25 19:49 | 34.39243 | -117.61975 | 25410 ft | 506 kts | 54° |
| 2026-04-25 19:49 | 34.42725 | -117.56245 | 25923 ft | 511 kts | 53° |
| 2026-04-25 19:49 | 34.44838 | -117.52783 | 26242 ft | 513 kts | 53° |
| 2026-04-25 19:50 | 34.49059 | -117.45767 | 26918 ft | 517 kts | 53° |
| 2026-04-25 19:50 | 34.51162 | -117.42216 | 27277 ft | 518 kts | 54° |
| 2026-04-25 19:50 | 34.53262 | -117.38655 | 27606 ft | 521 kts | 54° |
| 2026-04-25 19:51 | 34.55370 | -117.35081 | 27921 ft | 523 kts | 53° |
| 2026-04-25 19:51 | 34.57493 | -117.31486 | 28216 ft | 525 kts | 53° |
| 2026-04-25 19:51 | 34.59658 | -117.27829 | 28574 ft | 526 kts | 53° |
| 2026-04-25 19:51 | 34.61767 | -117.24271 | 28989 ft | 525 kts | 53° |
| 2026-04-25 19:52 | 34.63901 | -117.20668 | 29373 ft | 525 kts | 53° |
| 2026-04-25 19:52 | 34.66055 | -117.17023 | 29706 ft | 525 kts | 53° |
| 2026-04-25 19:52 | 34.68176 | -117.13423 | 30060 ft | 525 kts | 53° |
| 2026-04-25 19:52 | 34.70301 | -117.09809 | 30380 ft | 525 kts | 53° |
| 2026-04-25 19:53 | 34.72425 | -117.06191 | 30707 ft | 525 kts | 53° |
| 2026-04-25 19:53 | 34.74545 | -117.02579 | 31044 ft | 525 kts | 53° |
| 2026-04-25 19:53 | 34.76664 | -116.98966 | 31383 ft | 525 kts | 53° |
| 2026-04-25 19:53 | 34.78786 | -116.95349 | 31739 ft | 525 kts | 53° |
| 2026-04-25 19:54 | 34.80905 | -116.91735 | 32096 ft | 525 kts | 54° |
| 2026-04-25 19:54 | 34.83022 | -116.88123 | 32473 ft | 525 kts | 54° |
| 2026-04-25 19:54 | 34.85143 | -116.84502 | 32852 ft | 523 kts | 54° |
| 2026-04-25 19:54 | 34.85855 | -116.83286 | 32956 ft | 523 kts | 54° |
| 2026-04-25 19:55 | 34.89365 | -116.77280 | 33487 ft | 524 kts | 54° |
| 2026-04-25 19:55 | 34.91494 | -116.73664 | 33807 ft | 524 kts | 51° |
| 2026-04-25 19:55 | 34.93864 | -116.70306 | 34082 ft | 523 kts | 45° |
| 2026-04-25 19:55 | 34.96336 | -116.67061 | 34344 ft | 523 kts | 45° |
| 2026-04-25 19:56 | 34.98813 | -116.63808 | 34586 ft | 524 kts | 45° |
| 2026-04-25 19:56 | 35.01301 | -116.60538 | 34827 ft | 525 kts | 45° |
| 2026-04-25 19:56 | 35.03780 | -116.57274 | 35070 ft | 526 kts | 45° |
| 2026-04-25 19:56 | 35.06264 | -116.53993 | 35304 ft | 526 kts | 45° |
| 2026-04-25 19:57 | 35.08747 | -116.50704 | 35536 ft | 527 kts | 45° |
| 2026-04-25 19:57 | 35.11233 | -116.47408 | 35764 ft | 528 kts | 45° |
| 2026-04-25 19:57 | 35.13717 | -116.44114 | 36017 ft | 528 kts | 45° |
| 2026-04-25 19:57 | 35.16209 | -116.40808 | 36287 ft | 529 kts | 45° |
| 2026-04-25 19:58 | 35.18698 | -116.37509 | 36523 ft | 528 kts | 45° |
| 2026-04-25 19:58 | 35.21190 | -116.34205 | 36777 ft | 528 kts | 45° |
| 2026-04-25 19:58 | 35.23679 | -116.30905 | 36838 ft | 528 kts | 45° |
| 2026-04-25 19:59 | 35.28689 | -116.24255 | 36810 ft | 527 kts | 45° |
| 2026-04-25 19:59 | 35.33630 | -116.17656 | 36819 ft | 525 kts | 45° |
| 2026-04-25 20:00 | 35.38555 | -116.11060 | 36825 ft | 525 kts | 45° |
| 2026-04-25 20:00 | 35.43489 | -116.04467 | 36823 ft | 525 kts | 45° |
| 2026-04-25 20:01 | 35.50896 | -115.94545 | 36843 ft | 525 kts | 45° |
| 2026-04-25 20:01 | 35.55823 | -115.87915 | 36856 ft | 525 kts | 45° |
| 2026-04-25 20:02 | 35.60739 | -115.81277 | 36849 ft | 525 kts | 45° |
| 2026-04-25 20:02 | 35.65133 | -115.75324 | 36847 ft | 525 kts | 45° |
| 2026-04-25 20:03 | 35.69858 | -115.68848 | 36847 ft | 526 kts | 46° |
| 2026-04-25 20:03 | 35.74720 | -115.62130 | 36850 ft | 525 kts | 45° |
| 2026-04-25 20:04 | 35.79578 | -115.55407 | 36855 ft | 525 kts | 45° |
| 2026-04-25 20:04 | 35.84443 | -115.48686 | 36860 ft | 525 kts | 45° |
| 2026-04-25 20:05 | 35.89306 | -115.41967 | 36854 ft | 524 kts | 45° |
| 2026-04-25 20:05 | 35.94153 | -115.35248 | 36840 ft | 524 kts | 45° |
| 2026-04-25 20:06 | 35.98202 | -115.29610 | 36846 ft | 524 kts | 45° |
| 2026-04-25 20:06 | 36.03023 | -115.22877 | 36814 ft | 523 kts | 45° |
| 2026-04-25 20:07 | 36.07866 | -115.16190 | 36814 ft | 521 kts | 41° |
| 2026-04-25 20:07 | 36.13266 | -115.10282 | 36811 ft | 518 kts | 37° |
| 2026-04-25 20:08 | 36.18703 | -115.04447 | 36766 ft | 517 kts | 37° |
| 2026-04-25 20:08 | 36.24126 | -114.98587 | 36756 ft | 517 kts | 37° |
| 2026-04-25 20:09 | 36.29542 | -114.92728 | 36755 ft | 516 kts | 37° |
| 2026-04-25 20:09 | 36.34982 | -114.86841 | 36745 ft | 516 kts | 37° |
| 2026-04-25 20:10 | 36.40386 | -114.80982 | 36727 ft | 516 kts | 37° |
| 2026-04-25 20:10 | 36.45783 | -114.75116 | 36742 ft | 516 kts | 37° |
| 2026-04-25 20:11 | 36.51180 | -114.69245 | 36699 ft | 515 kts | 37° |
| 2026-04-25 20:11 | 36.56567 | -114.63367 | 36698 ft | 515 kts | 37° |
| 2026-04-25 20:12 | 36.61950 | -114.57475 | 36701 ft | 515 kts | 37° |
| 2026-04-25 20:12 | 36.66421 | -114.52581 | 36703 ft | 515 kts | 37° |
| 2026-04-25 20:13 | 36.72891 | -114.46029 | 36711 ft | 509 kts | 27° |
| 2026-04-25 20:13 | 36.78889 | -114.41351 | 36723 ft | 508 kts | 27° |
| 2026-04-25 20:14 | 36.84878 | -114.36668 | 36733 ft | 508 kts | 27° |
| 2026-04-25 20:14 | 36.90853 | -114.31964 | 36737 ft | 508 kts | 27° |
| 2026-04-25 20:15 | 36.96839 | -114.27241 | 36732 ft | 508 kts | 27° |
| 2026-04-25 20:15 | 37.02819 | -114.22518 | 36772 ft | 508 kts | 27° |
| 2026-04-25 20:16 | 37.08799 | -114.17791 | 36755 ft | 508 kts | 27° |
| 2026-04-25 20:16 | 37.14802 | -114.13043 | 36479 ft | 506 kts | 27° |
| 2026-04-25 20:17 | 37.17769 | -114.10688 | 36217 ft | 505 kts | 27° |
| 2026-04-25 20:17 | 37.20729 | -114.08336 | 35969 ft | 503 kts | 27° |
| 2026-04-25 20:17 | 37.23685 | -114.05983 | 35719 ft | 502 kts | 27° |
| 2026-04-25 20:17 | 37.26627 | -114.03641 | 35470 ft | 501 kts | 27° |
| 2026-04-25 20:18 | 37.29577 | -114.01291 | 35250 ft | 501 kts | 27° |
| 2026-04-25 20:18 | 37.32519 | -113.98946 | 35017 ft | 500 kts | 27° |
| 2026-04-25 20:18 | 37.35452 | -113.96609 | 34785 ft | 500 kts | 27° |
| 2026-04-25 20:18 | 37.38387 | -113.94273 | 34748 ft | 499 kts | 27° |
| 2026-04-25 20:19 | 37.44254 | -113.89597 | 34767 ft | 499 kts | 27° |
| 2026-04-25 20:19 | 37.50124 | -113.84896 | 34767 ft | 499 kts | 27° |
| 2026-04-25 20:20 | 37.55982 | -113.80194 | 34766 ft | 500 kts | 27° |
| 2026-04-25 20:20 | 37.61843 | -113.75480 | 34767 ft | 500 kts | 27° |
| 2026-04-25 20:21 | 37.67707 | -113.70751 | 34762 ft | 500 kts | 28° |
| 2026-04-25 20:21 | 37.73556 | -113.66020 | 34758 ft | 500 kts | 28° |
| 2026-04-25 20:22 | 37.77474 | -113.62858 | 34752 ft | 499 kts | 27° |
| 2026-04-25 20:22 | 37.85270 | -113.56560 | 34770 ft | 499 kts | 28° |
| 2026-04-25 20:23 | 37.91115 | -113.51810 | 34763 ft | 499 kts | 28° |
| 2026-04-25 20:23 | 37.96582 | -113.46337 | 34753 ft | 504 kts | 38° |
| 2026-04-25 20:24 | 38.01812 | -113.40402 | 34737 ft | 504 kts | 38° |
| 2026-04-25 20:24 | 38.07040 | -113.34476 | 34735 ft | 505 kts | 38° |
| 2026-04-25 20:25 | 38.12309 | -113.28488 | 34748 ft | 506 kts | 38° |
| 2026-04-25 20:25 | 38.17541 | -113.22513 | 34772 ft | 506 kts | 38° |
| 2026-04-25 20:26 | 38.22778 | -113.16527 | 34799 ft | 506 kts | 38° |
| 2026-04-25 20:26 | 38.28020 | -113.10526 | 34833 ft | 507 kts | 38° |
| 2026-04-25 20:27 | 38.33258 | -113.04538 | 34871 ft | 505 kts | 36° |
| 2026-04-25 20:27 | 38.39075 | -112.99732 | 34874 ft | 494 kts | 19° |
| 2026-04-25 20:28 | 38.45391 | -112.96375 | 34872 ft | 491 kts | 17° |
| 2026-04-25 20:28 | 38.51701 | -112.93013 | 34867 ft | 492 kts | 17° |
| 2026-04-25 20:29 | 38.58012 | -112.89612 | 34844 ft | 492 kts | 17° |
| 2026-04-25 20:29 | 38.64321 | -112.86227 | 34829 ft | 492 kts | 17° |
| 2026-04-25 20:30 | 38.70654 | -112.82849 | 34785 ft | 494 kts | 17° |
| 2026-04-25 20:30 | 38.77017 | -112.79456 | 34786 ft | 495 kts | 17° |
| 2026-04-25 20:31 | 38.83355 | -112.76020 | 34786 ft | 495 kts | 17° |
| 2026-04-25 20:31 | 38.89710 | -112.72572 | 34783 ft | 496 kts | 17° |
| 2026-04-25 20:32 | 38.96070 | -112.69131 | 34793 ft | 496 kts | 17° |
| 2026-04-25 20:32 | 39.02435 | -112.65694 | 34541 ft | 496 kts | 17° |
| 2026-04-25 20:33 | 39.05623 | -112.63969 | 33698 ft | 502 kts | 17° |
| 2026-04-25 20:33 | 39.08874 | -112.62207 | 32623 ft | 510 kts | 17° |
| 2026-04-25 20:33 | 39.12161 | -112.60421 | 31597 ft | 515 kts | 18° |
| 2026-04-25 20:33 | 39.13274 | -112.59816 | 31238 ft | 516 kts | 18° |
| 2026-04-25 20:34 | 39.18858 | -112.56774 | 29667 ft | 519 kts | 18° |
| 2026-04-25 20:34 | 39.22167 | -112.54964 | 28524 ft | 517 kts | 18° |
| 2026-04-25 20:34 | 39.25454 | -112.53168 | 27044 ft | 520 kts | 18° |
| 2026-04-25 20:34 | 39.28812 | -112.51336 | 25662 ft | 517 kts | 18° |
| 2026-04-25 20:35 | 39.32103 | -112.49526 | 24970 ft | 509 kts | 19° |
| 2026-04-25 20:35 | 39.35334 | -112.47704 | 24238 ft | 505 kts | 20° |
| 2026-04-25 20:35 | 39.38536 | -112.45862 | 23483 ft | 502 kts | 20° |
| 2026-04-25 20:35 | 39.41701 | -112.44021 | 22780 ft | 495 kts | 21° |
| 2026-04-25 20:36 | 39.44815 | -112.42205 | 21974 ft | 489 kts | 21° |
| 2026-04-25 20:36 | 39.47889 | -112.40416 | 21321 ft | 480 kts | 21° |
| 2026-04-25 20:36 | 39.50921 | -112.38657 | 20658 ft | 473 kts | 21° |
| 2026-04-25 20:36 | 39.53906 | -112.36934 | 20015 ft | 466 kts | 21° |
| 2026-04-25 20:37 | 39.56844 | -112.35245 | 19399 ft | 459 kts | 21° |
| 2026-04-25 20:37 | 39.59745 | -112.33579 | 18791 ft | 453 kts | 21° |
| 2026-04-25 20:37 | 39.62601 | -112.31935 | 18227 ft | 446 kts | 22° |
| 2026-04-25 20:37 | 39.65403 | -112.30315 | 17686 ft | 437 kts | 22° |
| 2026-04-25 20:38 | 39.68140 | -112.28731 | 17209 ft | 427 kts | 22° |
| 2026-04-25 20:38 | 39.70833 | -112.27173 | 16708 ft | 419 kts | 22° |
| 2026-04-25 20:38 | 39.72619 | -112.26138 | 16390 ft | 413 kts | 22° |
| 2026-04-25 20:38 | 39.76053 | -112.24141 | 15759 ft | 404 kts | 22° |
| 2026-04-25 20:39 | 39.78597 | -112.22666 | 15295 ft | 398 kts | 22° |
| 2026-04-25 20:39 | 39.80298 | -112.21679 | 15010 ft | 393 kts | 22° |
| 2026-04-25 20:39 | 39.82752 | -112.20250 | 14876 ft | 379 kts | 22° |
| 2026-04-25 20:39 | 39.84360 | -112.19312 | 14795 ft | 370 kts | 21° |
| 2026-04-25 20:40 | 39.87390 | -112.17541 | 14632 ft | 353 kts | 21° |
| 2026-04-25 20:40 | 39.89594 | -112.16253 | 14499 ft | 341 kts | 21° |
| 2026-04-25 20:40 | 39.91721 | -112.15011 | 14327 ft | 332 kts | 21° |
| 2026-04-25 20:40 | 39.93812 | -112.13793 | 14119 ft | 326 kts | 21° |
| 2026-04-25 20:41 | 39.95884 | -112.12587 | 13992 ft | 326 kts | 21° |
| 2026-04-25 20:41 | 39.97998 | -112.11521 | 13836 ft | 325 kts | 14° |
| 2026-04-25 20:41 | 40.00164 | -112.10666 | 13693 ft | 326 kts | 14° |
| 2026-04-25 20:41 | 40.02333 | -112.09810 | 13525 ft | 325 kts | 14° |
| 2026-04-25 20:42 | 40.04497 | -112.08954 | 13376 ft | 324 kts | 14° |
| 2026-04-25 20:42 | 40.06641 | -112.08100 | 13213 ft | 322 kts | 14° |
| 2026-04-25 20:42 | 40.08784 | -112.07243 | 13068 ft | 321 kts | 14° |
| 2026-04-25 20:42 | 40.10939 | -112.06383 | 12933 ft | 320 kts | 14° |
| 2026-04-25 20:43 | 40.13062 | -112.05536 | 12782 ft | 319 kts | 14° |
| 2026-04-25 20:43 | 40.15183 | -112.04687 | 12634 ft | 318 kts | 14° |
| 2026-04-25 20:43 | 40.17286 | -112.03844 | 12483 ft | 317 kts | 14° |
| 2026-04-25 20:43 | 40.19398 | -112.02999 | 12335 ft | 316 kts | 14° |
| 2026-04-25 20:44 | 40.21490 | -112.02163 | 12196 ft | 315 kts | 14° |
| 2026-04-25 20:44 | 40.23582 | -112.01324 | 12032 ft | 314 kts | 15° |
| 2026-04-25 20:44 | 40.25667 | -112.00488 | 11885 ft | 313 kts | 15° |
| 2026-04-25 20:44 | 40.27741 | -111.99656 | 11731 ft | 311 kts | 15° |
| 2026-04-25 20:45 | 40.29808 | -111.98830 | 11589 ft | 310 kts | 15° |
| 2026-04-25 20:45 | 40.31860 | -111.98011 | 11441 ft | 309 kts | 15° |
| 2026-04-25 20:45 | 40.33925 | -111.97183 | 11292 ft | 308 kts | 15° |
| 2026-04-25 20:45 | 40.35925 | -111.96377 | 11104 ft | 293 kts | 15° |
| 2026-04-25 20:46 | 40.37839 | -111.95611 | 10837 ft | 281 kts | 12° |
| 2026-04-25 20:46 | 40.39740 | -111.95258 | 10998 ft | 279 kts | 359° |
| 2026-04-25 20:46 | 40.41687 | -111.95389 | 10625 ft | 279 kts | 352° |
| 2026-04-25 20:46 | 40.43616 | -111.95598 | 10194 ft | 275 kts | 352° |
| 2026-04-25 20:47 | 40.45462 | -111.95810 | 9878 ft | 257 kts | 351° |
| 2026-04-25 20:47 | 40.47220 | -111.96035 | 9580 ft | 251 kts | 352° |
| 2026-04-25 20:47 | 40.48973 | -111.96246 | 9277 ft | 250 kts | 351° |
| 2026-04-25 20:47 | 40.50691 | -111.96444 | 8990 ft | 249 kts | 352° |
| 2026-04-25 20:48 | 40.52406 | -111.96641 | 8706 ft | 247 kts | 351° |
| 2026-04-25 20:48 | 40.54112 | -111.96838 | 8422 ft | 246 kts | 352° |
| 2026-04-25 20:48 | 40.55825 | -111.97033 | 8123 ft | 243 kts | 351° |
| 2026-04-25 20:48 | 40.57494 | -111.97223 | 7828 ft | 238 kts | 351° |
| 2026-04-25 20:49 | 40.59116 | -111.97409 | 7546 ft | 229 kts | 352° |
| 2026-04-25 20:49 | 40.60646 | -111.97575 | 7294 ft | 212 kts | 352° |
| 2026-04-25 20:49 | 40.62064 | -111.97744 | 7126 ft | 199 kts | 352° |
| 2026-04-25 20:49 | 40.63420 | -111.97910 | 7022 ft | 193 kts | 352° |
| 2026-04-25 20:50 | 40.64740 | -111.98067 | 6797 ft | 183 kts | 353° |
| 2026-04-25 20:50 | 40.65935 | -111.98204 | 6526 ft | 164 kts | 354° |
| 2026-04-25 20:50 | 40.67034 | -111.98332 | 6307 ft | 155 kts | 354° |
| 2026-04-25 20:50 | 40.68095 | -111.98452 | 6105 ft | 152 kts | 354° |
| 2026-04-25 20:51 | 40.69146 | -111.98579 | 5925 ft | 151 kts | 353° |
| 2026-04-25 20:51 | 40.70193 | -111.98699 | 5744 ft | 151 kts | 352° |
| 2026-04-25 20:51 | 40.71239 | -111.98822 | 5563 ft | 152 kts | 353° |
| 2026-04-25 20:51 | 40.72292 | -111.98940 | 5338 ft | 152 kts | 352° |
| 2026-04-25 20:52 | 40.73340 | -111.99066 | 5090 ft | 150 kts | 352° |
| 2026-04-25 20:52 | 40.74040 | -111.99147 | 4957 ft | 150 kts | 351° |
| 2026-04-25 20:52 | 40.75417 | -111.99306 | 4693 ft | 151 kts | 351° |
| 2026-04-25 20:52 | 40.76458 | -111.99431 | 4495 ft | 150 kts | 352° |
| 2026-04-25 20:53 | 40.77490 | -111.99545 | 4297 ft | 148 kts | 352° |
| 2026-04-25 20:53 | 40.78412 | -111.99656 | 4229 ft | 100 kts | 356° |
| 2026-04-25 20:53 | 40.78847 | -111.99706 | 4233 ft | 39 kts | 354° |
| 2026-04-25 20:53 | 40.79051 | -111.99674 | 4233 ft | 27 kts | 18° |
| 2026-04-25 20:54 | 40.79144 | -111.99534 | 4231 ft | 12 kts | 113° |
| 2026-04-25 20:54 | 40.79086 | -111.99514 | 4231 ft | 9 kts | 175° |
| 2026-04-25 20:54 | 40.79024 | -111.99508 | 4231 ft | 10 kts | 175° |
| 2026-04-25 20:54 | 40.78909 | -111.99495 | 4232 ft | 24 kts | 174° |
| 2026-04-25 20:55 | 40.78730 | -111.99475 | 4232 ft | 24 kts | 174° |
| 2026-04-25 20:55 | 40.78645 | -111.99383 | 4231 ft | 16 kts | 86° |
| 2026-04-25 20:55 | 40.78656 | -111.99205 | 4231 ft | 20 kts | 85° |
| 2026-04-25 20:55 | 40.78669 | -111.99027 | 4231 ft | 19 kts | 84° |
| 2026-04-25 20:56 | 40.78681 | -111.98858 | 4231 ft | 19 kts | 85° |
| 2026-04-25 20:56 | 40.78691 | -111.98692 | 4231 ft | 17 kts | 85° |
| 2026-04-25 20:56 | 40.78703 | -111.98538 | 4231 ft | 16 kts | 84° |
| 2026-04-25 20:56 | 40.78701 | -111.98456 | 4231 ft | 3 kts | 133° |
| 2026-04-25 20:57 | 40.78689 | -111.98448 | 4231 ft | 2 kts | 155° |
| 2026-04-25 20:57 | 40.78663 | -111.98437 | 4231 ft | 4 kts | 164° |
| 2026-04-25 20:57 | 40.78641 | -111.98429 | 4231 ft | 2 kts | 164° |
| 2026-04-25 20:57 | 40.78634 | -111.98427 | 4231 ft | 0 kts | 164° |